Cincinnati, OH

2:01 PM EDT on August 24, 2016 (GMT -0400)
Mt Adams | | Change Station

Elev 797 ft 39.11 °N, 84.50 °W | Updated 1 second ago

Mostly Cloudy
Mostly Cloudy
86.5 °F
Feels Like 93 °F
N
9.2
Wind Variable Wind from West
Gusts 9.2 mph

Today
High -- | Low -- °F
--% Chance of Precip.
Yesterday
High -- | Low -- °F
Precip. -- in
Pressure 30.12 in
Visibility 10.0 miles
Clouds Scattered Clouds 3700 ft
Mostly Cloudy 4600 ft
Heat Index 93 °F
Dew Point 72 °F
Humidity 63%
Rainfall 0.00 in
Snow Depth Not available.
6:59 AM 8:19 PM
Waning Gibbous, 55% visible
METAR KLUK 241753Z 19010KT 10SM SCT037 BKN046 29/23 A3013 RMK AO2 SLP199 T02890228 10300 20189 58023
Pressure 30.12 in
Visibility 10.0 miles
Clouds Scattered Clouds 3700 ft
Mostly Cloudy 4600 ft
Heat Index 93 °F
Dew Point 72 °F
Humidity 63%
Rainfall 0.00 in
Snow Depth Not available.
6:59 AM 8:19 PM
Waning Gibbous, 55% visible
METAR KLUK 241753Z 19010KT 10SM SCT037 BKN046 29/23 A3013 RMK AO2 SLP199 T02890228 10300 20189 58023

10-Day Weather Forecast

Almanac

Astronomy

Aug. 24, 2016 Rise Set
Actual Time
Civil Twilight
Nautical Twilight
Astronomical Twilight
Moon
Length of Visible Light
Length of Day
Tomorrow will be .
, % of the Moon is Illuminated

Today's Extremes

State Highs State Lows

Community

WunderPhotos

Upload Photos

1,934,662 photos uploaded!

WunderBlog® & News

Nearby

Air Quality

  Air Quality AQ Index Pollutant
Not available.

Snow Depth

Station Depth Elevation

Earthquake Activity

City Distance Mag. Time & Date
Minimum magnitude displayed is 2.5.

Coastal Water Temperatures

Place Temperature

Stations

Nearby Weather Stations

Station Location Temp. Windchill Dew Point Humidity Wind Precip. Elev Updated Type
                   

Watches & Warnings

There are currently no watches in effect.